createdAt,value
2019-01-22T00:01:14.302Z,55.40
2019-01-22T00:03:43.799Z,55.13
2019-01-22T00:06:13.249Z,58.53
2019-01-22T00:08:42.748Z,57.77
2019-01-22T00:11:12.295Z,53.90
2019-01-22T00:13:41.793Z,54.47
2019-01-22T00:16:11.261Z,55.73
2019-01-22T00:18:40.764Z,57.23
2019-01-22T00:21:10.248Z,56.60
2019-01-22T00:23:39.755Z,58.83
2019-01-22T00:26:09.337Z,53.23
2019-01-22T00:28:38.818Z,54.83
2019-01-22T00:31:08.292Z,57.37
2019-01-22T00:33:38.224Z,52.83
2019-01-22T00:36:07.776Z,55.70
2019-01-22T00:38:37.270Z,53.20
2019-01-22T00:41:06.774Z,56.47
2019-01-22T00:43:36.292Z,54.80
2019-01-22T00:46:05.929Z,55.17
2019-01-22T00:48:35.458Z,56.87
2019-01-22T00:51:05.086Z,57.20
2019-01-22T00:53:34.583Z,52.27
2019-01-22T00:56:04.144Z,57.27
2019-01-22T00:58:33.690Z,55.17
2019-01-22T01:01:03.155Z,56.23
2019-01-22T01:03:32.675Z,60.70
2019-01-22T01:06:02.198Z,57.43
2019-01-22T01:08:31.687Z,57.03
2019-01-22T01:11:01.228Z,59.27
2019-01-22T01:13:31.063Z,54.27
2019-01-22T01:16:00.526Z,54.10
2019-01-22T01:18:30.031Z,55.87
2019-01-22T01:20:59.518Z,55.90
2019-01-22T01:23:29.045Z,55.37
2019-01-22T01:25:58.515Z,56.43
2019-01-22T01:28:47.349Z,56.57
2019-01-22T01:31:28.885Z,54.90
2019-01-22T01:34:17.913Z,56.43
2019-01-22T01:37:06.714Z,57.00
2019-01-22T01:39:55.596Z,58.83
2019-01-22T01:42:44.528Z,55.43
2019-01-22T01:45:33.372Z,60.43
2019-01-22T01:48:22.158Z,57.60
2019-01-22T01:51:10.991Z,59.40
2019-01-22T01:53:59.857Z,57.87
2019-01-22T01:56:29.332Z,60.60
2019-01-22T01:58:58.839Z,61.03
2019-01-22T02:01:28.495Z,60.70
2019-01-22T02:03:58.000Z,58.90
2019-01-22T02:06:27.502Z,57.90
2019-01-22T02:08:56.998Z,63.07
2019-01-22T02:11:26.558Z,59.50
2019-01-22T02:13:56.329Z,62.83
2019-01-22T02:16:33.264Z,60.67
2019-01-22T02:19:19.271Z,58.63
2019-01-22T02:22:02.052Z,56.97
2019-01-22T02:24:38.891Z,61.37
2019-01-22T02:27:24.343Z,63.37
2019-01-22T02:30:19.673Z,56.87
2019-01-22T02:33:08.598Z,56.97
2019-01-22T02:35:48.283Z,64.60
2019-01-22T02:39:09.665Z,63.07
2019-01-22T02:41:43.864Z,60.23
2019-01-22T02:44:26.767Z,62.27
2019-01-22T02:47:15.753Z,61.03
2019-01-22T02:49:55.362Z,62.07
2019-01-22T02:52:41.196Z,60.77
2019-01-22T02:55:24.313Z,58.20
2019-01-22T02:58:14.673Z,64.40
2019-01-22T03:01:21.816Z,60.70
2019-01-22T03:04:01.762Z,60.50
2019-01-22T03:07:08.708Z,60.17
2019-01-22T03:10:05.283Z,63.87
2019-01-22T03:13:01.833Z,65.13
2019-01-22T03:16:13.282Z,61.17
2019-01-22T03:19:02.278Z,57.83
2019-01-22T03:21:51.177Z,62.80
2019-01-22T03:24:54.840Z,60.60
2019-01-22T03:27:49.137Z,61.27
2019-01-22T03:30:26.045Z,61.93
2019-01-22T03:33:09.252Z,59.47
2019-01-22T03:35:51.908Z,59.97
2019-01-22T03:38:34.803Z,56.20
2019-01-22T03:41:37.245Z,61.10
2019-01-22T03:44:22.821Z,59.23
2019-01-22T03:47:28.047Z,55.40
2019-01-22T03:50:24.158Z,58.60
2019-01-22T03:52:58.350Z,58.37
2019-01-22T03:55:51.632Z,55.87
2019-01-22T03:58:21.476Z,61.03
2019-01-22T04:00:51.429Z,63.93
2019-01-22T04:03:21.061Z,61.47
2019-01-22T04:05:50.584Z,59.33
2019-01-22T04:08:20.051Z,57.10
2019-01-22T04:10:52.934Z,58.43
2019-01-22T04:13:22.443Z,61.53
2019-01-22T04:15:52.285Z,57.23
2019-01-22T04:18:21.801Z,60.77
2019-01-22T04:20:52.112Z,59.53
2019-01-22T04:23:26.568Z,60.57
2019-01-22T04:26:03.282Z,60.43
2019-01-22T04:29:04.343Z,63.53
2019-01-22T04:31:41.367Z,61.83
2019-01-22T04:34:42.164Z,62.33
2019-01-22T04:37:43.219Z,64.23
2019-01-22T04:40:35.023Z,60.17
2019-01-22T04:43:20.767Z,62.70
2019-01-22T04:46:12.796Z,58.47
2019-01-22T04:49:17.712Z,64.87
2019-01-22T04:51:51.950Z,60.70
2019-01-22T04:54:34.805Z,62.40
2019-01-22T04:57:09.007Z,60.73
2019-01-22T05:00:17.575Z,60.17
2019-01-22T05:03:00.437Z,57.20
2019-01-22T05:06:04.575Z,62.60
2019-01-22T05:08:53.225Z,59.57
2019-01-22T05:11:30.466Z,61.83
2019-01-22T05:14:22.230Z,59.80
2019-01-22T05:17:11.215Z,63.57
2019-01-22T05:19:50.876Z,64.53
2019-01-22T05:22:36.609Z,65.83
2019-01-22T05:25:28.398Z,61.50
2019-01-22T05:28:05.467Z,62.27
2019-01-22T05:30:45.274Z,63.57
2019-01-22T05:33:34.197Z,65.70
2019-01-22T05:36:16.955Z,62.27
2019-01-22T05:39:04.052Z,63.57
2019-01-22T05:41:49.982Z,66.33
2019-01-22T05:44:30.124Z,59.47
2019-01-22T05:47:34.090Z,58.77
2019-01-22T05:50:32.062Z,67.27
2019-01-22T05:53:40.720Z,64.67
2019-01-22T05:56:27.676Z,59.63
2019-01-22T05:59:19.755Z,58.57
2019-01-22T06:01:56.707Z,62.30
2019-01-22T06:04:59.302Z,62.57
2019-01-22T06:07:48.043Z,59.07
2019-01-22T06:11:00.986Z,58.73
2019-01-22T06:13:52.863Z,61.53
2019-01-22T06:16:47.993Z,65.97
2019-01-22T06:19:46.091Z,61.40
2019-01-22T06:22:51.199Z,64.37
2019-01-22T06:26:00.964Z,63.80
2019-01-22T06:28:40.738Z,67.20
2019-01-22T06:31:43.038Z,62.97
2019-01-22T06:34:35.225Z,71.87
2019-01-22T06:37:18.005Z,65.03
2019-01-22T06:40:09.795Z,64.37
2019-01-22T06:42:58.130Z,64.23
2019-01-22T06:45:44.133Z,65.67
2019-01-22T06:48:49.828Z,64.30
2019-01-22T06:51:51.573Z,66.03
2019-01-22T06:54:39.635Z,64.17
2019-01-22T06:57:38.521Z,59.37
2019-01-22T07:00:43.734Z,67.53
2019-01-22T07:03:38.581Z,64.43
2019-01-22T07:06:24.483Z,64.63
2019-01-22T07:09:22.105Z,66.90
2019-01-22T07:12:11.041Z,66.90
2019-01-22T07:15:09.018Z,68.97
2019-01-22T07:17:57.574Z,63.17
2019-01-22T07:20:37.400Z,68.07
2019-01-22T07:23:17.512Z,66.40
2019-01-22T07:25:57.551Z,71.63
2019-01-22T07:28:31.766Z,67.40
2019-01-22T07:31:23.792Z,71.93
2019-01-22T07:34:06.529Z,70.13
2019-01-22T07:36:48.810Z,74.03
2019-01-22T07:39:34.673Z,72.97
2019-01-22T07:42:20.858Z,69.90
2019-01-22T07:45:18.754Z,72.40
2019-01-22T07:47:58.691Z,73.27
2019-01-22T07:51:13.363Z,71.37
2019-01-22T07:54:05.050Z,62.53
2019-01-22T07:56:53.423Z,60.50
2019-01-22T07:59:33.002Z,57.07
2019-01-22T08:02:26.434Z,62.37
2019-01-22T08:05:13.084Z,95.27
2019-01-22T08:07:57.623Z,82.53
2019-01-22T08:10:52.591Z,58.77
2019-01-22T08:13:35.402Z,56.43
2019-01-22T08:16:21.298Z,67.17
2019-01-22T08:19:10.422Z,63.67
2019-01-22T08:22:31.011Z,67.23
2019-01-22T08:25:19.879Z,63.07
2019-01-22T08:28:17.572Z,63.53
2019-01-22T08:31:17.280Z,67.20
2019-01-22T08:34:03.134Z,64.80
2019-01-22T08:36:58.744Z,60.97
2019-01-22T08:39:50.543Z,65.80
2019-01-22T08:42:54.766Z,63.20
2019-01-22T08:46:06.212Z,65.47
2019-01-22T08:48:52.136Z,59.30
2019-01-22T08:51:49.882Z,72.07
2019-01-22T08:54:43.204Z,71.23
2019-01-22T08:57:57.521Z,58.93
2019-01-22T09:00:52.459Z,63.77
2019-01-22T09:03:43.971Z,60.40
2019-01-22T09:06:29.560Z,58.90
2019-01-22T09:09:15.433Z,57.83
2019-01-22T09:12:16.151Z,61.20
2019-01-22T09:15:18.739Z,57.93
2019-01-22T09:17:58.137Z,57.47
2019-01-22T09:20:50.160Z,58.73
2019-01-22T09:23:39.064Z,57.27
2019-01-22T09:26:27.679Z,62.37
2019-01-22T09:29:23.654Z,51.93
2019-01-22T09:32:18.250Z,56.67
2019-01-22T09:35:23.622Z,62.90
2019-01-22T09:37:53.232Z,59.13
2019-01-22T09:40:24.361Z,53.90
2019-01-22T09:42:54.068Z,59.70
2019-01-22T09:45:23.561Z,59.43
2019-01-22T09:47:53.030Z,61.77
2019-01-22T09:50:22.560Z,56.43
2019-01-22T09:52:52.072Z,62.30
2019-01-22T09:55:22.540Z,58.37
2019-01-22T09:57:52.231Z,54.70
2019-01-22T10:00:22.823Z,56.43
2019-01-22T10:02:52.315Z,52.03
2019-01-22T10:05:21.800Z,53.30
2019-01-22T10:07:51.312Z,43.87
2019-01-22T10:10:23.399Z,47.10
2019-01-22T10:12:52.927Z,53.07
2019-01-22T10:15:23.323Z,47.37
2019-01-22T10:17:52.792Z,48.93
2019-01-22T10:20:24.371Z,40.47
2019-01-22T10:22:54.018Z,45.73
2019-01-22T10:25:29.363Z,46.93
2019-01-22T10:27:54.740Z,47.63
2019-01-22T10:30:25.765Z,44.60
2019-01-22T10:32:55.255Z,45.00
2019-01-22T10:35:24.737Z,46.67
2019-01-22T10:37:54.254Z,48.60
2019-01-22T10:40:27.689Z,46.47
2019-01-22T10:42:57.162Z,42.40
2019-01-22T10:45:26.700Z,49.27
2019-01-22T10:47:56.160Z,47.53
2019-01-22T10:50:25.901Z,43.70
2019-01-22T10:52:55.348Z,47.03
2019-01-22T10:55:24.870Z,46.83
2019-01-22T10:57:54.333Z,45.80
2019-01-22T11:00:27.725Z,47.73
2019-01-22T11:02:57.224Z,48.73
2019-01-22T11:05:34.348Z,46.23
2019-01-22T11:08:03.855Z,41.47
2019-01-22T11:10:33.343Z,43.80
2019-01-22T11:13:03.008Z,46.57
2019-01-22T11:15:32.581Z,45.73
2019-01-22T11:18:02.115Z,48.70
2019-01-22T11:20:32.439Z,46.50
2019-01-22T11:23:01.941Z,45.23
2019-01-22T11:25:33.604Z,45.00
2019-01-22T11:28:03.112Z,45.63
2019-01-22T11:30:32.685Z,41.33
2019-01-22T11:33:02.381Z,45.17
2019-01-22T11:35:31.923Z,46.63
2019-01-22T11:38:01.472Z,40.37
2019-01-22T11:40:35.394Z,44.07
2019-01-22T11:43:05.230Z,43.30
2019-01-22T11:45:34.701Z,37.80
2019-01-22T11:48:05.141Z,38.07
2019-01-22T11:50:34.599Z,39.50
2019-01-22T11:53:04.275Z,42.33
2019-01-22T11:55:33.737Z,39.33
2019-01-22T11:58:03.234Z,41.07
2019-01-22T12:00:37.637Z,42.00
2019-01-22T12:03:07.400Z,42.17
2019-01-22T12:05:36.907Z,40.93
2019-01-22T12:08:06.743Z,60.40
2019-01-22T12:10:36.240Z,41.37
2019-01-22T12:13:05.901Z,44.23
2019-01-22T12:15:35.374Z,40.53
2019-01-22T12:18:06.523Z,40.70
2019-01-22T12:20:39.986Z,38.97
2019-01-22T12:23:09.483Z,40.07
2019-01-22T12:25:38.941Z,36.83
2019-01-22T12:28:08.523Z,39.07
2019-01-22T12:30:38.957Z,38.53
2019-01-22T12:33:08.502Z,37.90
2019-01-22T12:35:38.079Z,36.13
2019-01-22T12:38:07.842Z,36.83
2019-01-22T12:40:37.286Z,37.33
2019-01-22T12:43:07.220Z,35.83
2019-01-22T12:45:40.506Z,34.43
2019-01-22T12:48:10.072Z,35.83
2019-01-22T12:50:39.779Z,36.30
2019-01-22T12:53:09.365Z,34.20
2019-01-22T12:55:38.914Z,37.27
2019-01-22T12:58:08.465Z,36.33
2019-01-22T13:00:39.030Z,37.17
2019-01-22T13:03:08.761Z,36.90
2019-01-22T13:05:51.043Z,41.40
2019-01-22T13:08:20.583Z,38.70
2019-01-22T13:10:50.058Z,36.40
2019-01-22T13:13:19.566Z,41.73
2019-01-22T13:15:49.207Z,41.77
2019-01-22T13:18:19.679Z,39.17
2019-01-22T13:20:49.263Z,49.00
2019-01-22T13:23:19.023Z,41.03
2019-01-22T13:25:48.478Z,42.37
2019-01-22T13:28:17.995Z,43.50
2019-01-22T13:30:47.640Z,39.67
2019-01-22T13:33:17.163Z,38.60
2019-01-22T13:35:46.621Z,44.23
2019-01-22T13:38:16.199Z,41.60
2019-01-22T13:40:45.694Z,43.20
2019-01-22T13:43:15.211Z,43.73
2019-01-22T13:45:44.662Z,42.90
2019-01-22T13:48:16.269Z,41.90
2019-01-22T13:50:45.725Z,40.17
2019-01-22T13:53:16.106Z,36.83
2019-01-22T13:55:45.646Z,40.93
2019-01-22T13:58:15.163Z,39.53
2019-01-22T14:00:44.626Z,36.83
2019-01-22T14:03:14.152Z,39.77
2019-01-22T14:05:43.673Z,41.20
2019-01-22T14:08:13.235Z,39.63
2019-01-22T14:10:42.699Z,41.53
2019-01-22T14:13:12.233Z,46.57
2019-01-22T14:15:42.253Z,41.67
2019-01-22T14:18:11.881Z,40.23
2019-01-22T14:20:41.449Z,43.27
2019-01-22T14:23:10.964Z,44.53
2019-01-22T14:25:40.423Z,44.67
2019-01-22T14:28:10.005Z,39.90
2019-01-22T14:30:40.602Z,48.73
2019-01-22T14:33:10.154Z,44.43
2019-01-22T14:35:39.671Z,45.93
2019-01-22T14:38:09.217Z,42.10
2019-01-22T14:40:38.691Z,45.30
2019-01-22T14:43:08.173Z,39.60
2019-01-22T14:45:37.857Z,41.47
2019-01-22T14:48:07.331Z,38.43
2019-01-22T14:50:36.781Z,37.90
2019-01-22T14:53:06.368Z,38.30
2019-01-22T14:55:35.841Z,41.20
2019-01-22T14:58:05.585Z,60.10
2019-01-22T15:00:35.048Z,50.63
2019-01-22T15:03:04.925Z,47.67
2019-01-22T15:05:34.402Z,42.53
2019-01-22T15:08:04.006Z,40.03
2019-01-22T15:10:33.496Z,41.17
2019-01-22T15:13:03.050Z,42.77
2019-01-22T15:15:32.546Z,42.83
2019-01-22T15:18:02.099Z,43.40
2019-01-22T15:20:31.614Z,41.07
2019-01-22T15:23:01.131Z,39.57
2019-01-22T15:25:30.602Z,40.50
2019-01-22T15:28:00.139Z,43.70
2019-01-22T15:30:32.630Z,44.30
2019-01-22T15:33:02.139Z,41.03
2019-01-22T15:35:31.608Z,40.60
2019-01-22T15:38:01.117Z,42.37
2019-01-22T15:40:31.912Z,40.80
2019-01-22T15:43:01.474Z,41.47
2019-01-22T15:45:31.019Z,40.67
2019-01-22T15:48:00.577Z,39.73
2019-01-22T15:50:30.068Z,39.90
2019-01-22T15:52:59.565Z,41.03
2019-01-22T15:55:32.338Z,38.93
2019-01-22T15:58:01.913Z,41.67
2019-01-22T16:00:31.366Z,39.83
2019-01-22T16:03:00.870Z,41.60
2019-01-22T16:05:30.393Z,38.63
2019-01-22T16:07:59.909Z,43.90
2019-01-22T16:10:29.365Z,39.37
2019-01-22T16:12:58.943Z,40.30
2019-01-22T16:15:28.406Z,40.80
2019-01-22T16:17:58.027Z,39.57
2019-01-22T16:20:28.449Z,41.27
2019-01-22T16:22:57.998Z,38.13
2019-01-22T16:25:27.878Z,38.03
2019-01-22T16:27:57.504Z,37.97
2019-01-22T16:30:27.333Z,39.77
2019-01-22T16:32:57.006Z,40.63
2019-01-22T16:35:26.822Z,42.93
2019-01-22T16:37:56.440Z,43.70
2019-01-22T16:40:26.086Z,42.07
2019-01-22T16:42:55.651Z,40.10
2019-01-22T16:45:29.249Z,41.07
2019-01-22T16:47:58.808Z,37.97
2019-01-22T16:50:31.105Z,40.97
2019-01-22T16:53:02.924Z,40.07
2019-01-22T16:55:36.574Z,41.40
2019-01-22T16:58:06.344Z,46.53
2019-01-22T17:00:37.481Z,38.63
2019-01-22T17:03:09.072Z,38.80
2019-01-22T17:05:38.960Z,43.30
2019-01-22T17:08:08.522Z,42.03
2019-01-22T17:10:38.079Z,50.40
2019-01-22T17:13:07.678Z,43.07
2019-01-22T17:15:37.160Z,46.03
2019-01-22T17:18:06.928Z,44.50
2019-01-22T17:20:39.456Z,51.67
2019-01-22T17:23:09.462Z,41.73
2019-01-22T17:25:39.014Z,41.70
2019-01-22T17:28:08.494Z,41.57
2019-01-22T17:30:38.122Z,42.50
2019-01-22T17:33:19.443Z,46.70
2019-01-22T17:35:49.313Z,43.50
2019-01-22T17:38:18.992Z,41.30
2019-01-22T17:40:48.558Z,44.33
2019-01-22T17:43:18.038Z,42.90
2019-01-22T17:45:47.580Z,44.10
2019-01-22T17:48:17.216Z,53.70
2019-01-22T17:50:46.733Z,81.80
2019-01-22T17:53:16.216Z,46.07
2019-01-22T17:55:45.769Z,47.07
2019-01-22T17:58:15.277Z,44.13
2019-01-22T18:00:47.345Z,47.87
2019-01-22T18:03:16.930Z,44.87
2019-01-22T18:05:46.479Z,47.53
2019-01-22T18:08:15.983Z,53.10
2019-01-22T18:10:45.497Z,48.50
2019-01-22T18:13:15.010Z,50.43
2019-01-22T18:15:44.590Z,48.67
2019-01-22T18:18:14.052Z,48.60
2019-01-22T18:20:43.600Z,47.20
2019-01-22T18:23:13.073Z,46.67
2019-01-22T18:25:42.678Z,51.23
2019-01-22T18:28:12.157Z,46.37
2019-01-22T18:30:41.715Z,50.73
2019-01-22T18:33:11.251Z,49.27
2019-01-22T18:35:41.803Z,50.60
2019-01-22T18:38:12.208Z,49.23
2019-01-22T18:40:41.763Z,46.03
2019-01-22T18:43:11.324Z,49.77
2019-01-22T18:45:40.912Z,47.30
2019-01-22T18:48:10.416Z,48.93
2019-01-22T18:50:39.923Z,48.73
2019-01-22T18:53:09.428Z,49.53
2019-01-22T18:55:38.933Z,48.40
2019-01-22T18:58:08.537Z,49.73
2019-01-22T19:00:38.063Z,44.13
2019-01-22T19:03:07.528Z,51.53
2019-01-22T19:05:37.073Z,47.17
2019-01-22T19:08:06.526Z,49.87
2019-01-22T19:10:36.208Z,49.50
2019-01-22T19:13:05.819Z,50.97
2019-01-22T19:15:35.395Z,49.23
2019-01-22T19:18:05.065Z,46.97
2019-01-22T19:20:34.601Z,52.13
2019-01-22T19:23:04.076Z,45.80
2019-01-22T19:25:33.638Z,50.57
2019-01-22T19:28:03.127Z,49.83
2019-01-22T19:30:33.408Z,49.87
2019-01-22T19:33:02.903Z,50.87
2019-01-22T19:35:32.458Z,49.17
2019-01-22T19:38:01.926Z,52.10
2019-01-22T19:40:31.520Z,53.47
2019-01-22T19:43:00.986Z,50.60
2019-01-22T19:45:35.296Z,50.13
2019-01-22T19:48:04.974Z,54.30
2019-01-22T19:50:34.558Z,54.50
2019-01-22T19:53:04.269Z,53.87
2019-01-22T19:55:35.218Z,50.00
2019-01-22T19:58:05.116Z,59.17
2019-01-22T20:00:36.935Z,57.67
2019-01-22T20:03:06.940Z,56.77
2019-01-22T20:05:36.594Z,55.03
2019-01-22T20:08:06.464Z,55.03
2019-01-22T20:10:36.035Z,50.47
2019-01-22T20:13:05.856Z,51.53
2019-01-22T20:15:35.427Z,59.63
2019-01-22T20:18:05.074Z,55.73
2019-01-22T20:20:34.579Z,53.33
2019-01-22T20:23:04.175Z,59.50
2019-01-22T20:25:36.216Z,65.10
2019-01-22T20:28:05.983Z,59.53
2019-01-22T20:30:36.862Z,57.77
2019-01-22T20:33:06.529Z,56.83
2019-01-22T20:35:36.080Z,58.00
2019-01-22T20:38:06.215Z,57.40
2019-01-22T20:40:36.005Z,59.57
2019-01-22T20:43:05.640Z,55.90
2019-01-22T20:45:35.119Z,54.43
2019-01-22T20:48:04.789Z,53.13
2019-01-22T20:50:34.258Z,53.93
2019-01-22T20:53:04.000Z,57.00
2019-01-22T20:55:33.567Z,57.90
2019-01-22T20:58:03.077Z,59.10
2019-01-22T21:00:33.660Z,55.23
2019-01-22T21:03:03.212Z,53.53
2019-01-22T21:05:32.692Z,58.70
2019-01-22T21:08:02.231Z,60.87
2019-01-22T21:10:33.605Z,58.33
2019-01-22T21:13:03.158Z,59.60
2019-01-22T21:15:33.363Z,61.83
2019-01-22T21:18:02.874Z,55.23
2019-01-22T21:20:32.343Z,60.67
2019-01-22T21:23:01.858Z,55.60
2019-01-22T21:25:31.396Z,56.50
2019-01-22T21:28:01.894Z,57.40
2019-01-22T21:30:36.398Z,61.67
2019-01-22T21:33:07.320Z,61.47
2019-01-22T21:35:37.084Z,60.77
2019-01-22T21:38:06.704Z,56.07
2019-01-22T21:40:36.161Z,59.33
2019-01-22T21:43:05.945Z,60.87
2019-01-22T21:45:35.415Z,61.63
2019-01-22T21:48:05.527Z,64.00
2019-01-22T21:50:35.174Z,54.93
2019-01-22T21:53:05.422Z,59.23
2019-01-22T21:55:34.896Z,54.97
2019-01-22T21:58:08.360Z,55.10
2019-01-22T22:00:36.039Z,53.17
2019-01-22T22:03:05.717Z,57.00
2019-01-22T22:05:35.179Z,67.47
2019-01-22T22:08:05.282Z,60.77
2019-01-22T22:10:34.831Z,58.03
2019-01-22T22:13:04.467Z,61.13
2019-01-22T22:15:33.951Z,61.43
2019-01-22T22:18:03.486Z,56.67
2019-01-22T22:20:33.006Z,55.87
2019-01-22T22:23:02.491Z,61.50
2019-01-22T22:25:32.067Z,51.00
2019-01-22T22:28:01.617Z,57.27
2019-01-22T22:30:34.982Z,52.50
2019-01-22T22:33:05.214Z,53.77
2019-01-22T22:35:34.898Z,55.30
2019-01-22T22:38:04.793Z,49.80
2019-01-22T22:40:34.259Z,58.07
2019-01-22T22:43:04.032Z,54.97
2019-01-22T22:45:33.498Z,55.27
2019-01-22T22:48:03.049Z,53.97
2019-01-22T22:50:33.447Z,59.90
2019-01-22T22:53:02.999Z,56.83
2019-01-22T22:55:32.911Z,58.67
2019-01-22T22:58:02.392Z,62.83
2019-01-22T23:00:48.247Z,55.77
2019-01-22T23:03:18.086Z,63.77
2019-01-22T23:05:47.695Z,59.00
2019-01-22T23:08:17.212Z,57.50
2019-01-22T23:10:46.678Z,55.30
2019-01-22T23:13:16.220Z,57.77
2019-01-22T23:15:45.710Z,55.20
2019-01-22T23:18:15.347Z,55.13
2019-01-22T23:20:44.794Z,57.47
2019-01-22T23:23:14.303Z,55.37
2019-01-22T23:25:43.794Z,53.33
2019-01-22T23:28:13.303Z,58.03
2019-01-22T23:30:42.777Z,54.47
2019-01-22T23:33:12.311Z,58.10
2019-01-22T23:35:41.770Z,58.27
2019-01-22T23:38:11.276Z,57.57
2019-01-22T23:40:40.841Z,53.00
2019-01-22T23:43:10.334Z,54.33
2019-01-22T23:45:39.888Z,57.07
2019-01-22T23:48:09.369Z,58.70
2019-01-22T23:50:38.831Z,60.70
2019-01-22T23:53:08.333Z,56.70
2019-01-22T23:55:37.808Z,58.70
2019-01-22T23:58:07.309Z,54.07
